Dale Hollow Observed Data For Previous 48 Hours

Caption
Day and Hour Reservoir Elevation (behind dam)* Tailwater Elevation (below dam)* Average Hourly Discharge*
6/20/2018 1 AM CDT 648.99 503.69 25
6/20/2018 2 AM CDT 648.99 503.49 25
6/20/2018 3 AM CDT 648.99 503.39 25
6/20/2018 4 AM CDT 648.99 503.29 25
6/20/2018 5 AM CDT 648.99 503.19 25
6/20/2018 6 AM CDT 648.99 503.19 25
6/20/2018 7 AM CDT 648.99 503.29 25
6/20/2018 8 AM CDT 648.99 503.39 25
6/20/2018 9 AM CDT 648.99 503.39 25
6/20/2018 10 AM CDT 648.99 503.49 25
6/20/2018 11 AM CDT 648.98 507.58 1,555
6/20/2018 12 PM CDT 648.94 510.64 3,145
6/20/2018 1 PM CDT 648.94 511.34 3,165
6/20/2018 2 PM CDT 648.94 511.64 3,165
6/20/2018 3 PM CDT 648.94 511.74 3,185
6/20/2018 4 PM CDT 648.88 511.88 3,185
6/20/2018 5 PM CDT 648.88 511.98 3,185
6/20/2018 6 PM CDT 648.88 511.98 3,185
6/20/2018 7 PM CDT 648.83 511.93 3,185
6/20/2018 8 PM CDT 648.88 512.08 3,375
6/20/2018 9 PM CDT 648.86 508.96 1,755
6/20/2018 10 PM CDT 648.84 505.84 25
6/20/2018 11 PM CDT 648.85 504.55 25
6/21/2018 12 AM CDT 648.85 504.05 25
6/21/2018 1 AM CDT 648.84 503.74 25
6/21/2018 2 AM CDT 648.84 503.54 25
6/21/2018 3 AM CDT 648.84 503.34 25
6/21/2018 4 AM CDT 648.84 503.24 25
6/21/2018 5 AM CDT 648.84 503.14 25
6/21/2018 6 AM CDT 648.84 503.14 25
6/21/2018 7 AM CDT 648.84 503.14 25
6/21/2018 8 AM CDT 648.84 503.14 25
6/21/2018 9 AM CDT 648.84 503.14 25
6/21/2018 10 AM CDT 648.85 507.55 1,555
6/21/2018 11 AM CDT 648.83 510.73 3,165
6/21/2018 12 PM CDT 648.83 511.53 3,203
6/21/2018 1 PM CDT 648.83 511.53 3,215
6/21/2018 2 PM CDT 648.83 511.43 3,215
6/21/2018 3 PM CDT 648.83 511.63 3,235
6/21/2018 4 PM CDT 648.78 511.68 3,200
6/21/2018 5 PM CDT 648.78 511.58 3,185
6/21/2018 6 PM CDT 648.78 511.58 3,185
6/21/2018 7 PM CDT 648.76 511.66 3,185
6/21/2018 8 PM CDT 648.74 511.64 3,185
6/21/2018 9 PM CDT 648.74 511.84 3,275
6/21/2018 10 PM CDT 648.73 510.13 25
6/21/2018 11 PM CDT 648.73 509.03 25
6/22/2018 12 AM CDT 648.73 505.73 25

Elevations are in feet above sea level. Discharges are in cubic feet per second and are reported at the end of the hour.